sensor_id;sensor_type;location;lat;lon;timestamp;P1;durP1;ratioP1;P2;durP2;ratioP2
48588;SDS011;34369;51.174;6.738;2022-12-05T00:00:40;53.60;;;49.23;;
48588;SDS011;34369;51.174;6.738;2022-12-05T00:03:12;49.87;;;45.50;;
48588;SDS011;34369;51.174;6.738;2022-12-05T00:05:45;50.13;;;45.63;;
48588;SDS011;34369;51.174;6.738;2022-12-05T00:08:21;55.57;;;50.83;;
48588;SDS011;34369;51.174;6.738;2022-12-05T00:10:56;52.33;;;47.73;;
48588;SDS011;34369;51.174;6.738;2022-12-05T00:13:28;49.53;;;45.33;;
48588;SDS011;34369;51.174;6.738;2022-12-05T00:16:00;54.47;;;49.67;;
48588;SDS011;34369;51.174;6.738;2022-12-05T00:18:37;54.57;;;49.87;;
48588;SDS011;34369;51.174;6.738;2022-12-05T00:21:11;54.73;;;50.10;;
48588;SDS011;34369;51.174;6.738;2022-12-05T00:23:46;53.33;;;48.77;;
48588;SDS011;34369;51.174;6.738;2022-12-05T00:26:24;53.57;;;49.03;;
48588;SDS011;34369;51.174;6.738;2022-12-05T00:28:57;53.07;;;48.30;;
48588;SDS011;34369;51.174;6.738;2022-12-05T00:31:30;53.20;;;48.37;;
48588;SDS011;34369;51.174;6.738;2022-12-05T00:34:02;53.00;;;48.57;;
48588;SDS011;34369;51.174;6.738;2022-12-05T00:36:35;51.73;;;46.87;;
48588;SDS011;34369;51.174;6.738;2022-12-05T00:39:08;53.80;;;49.27;;
48588;SDS011;34369;51.174;6.738;2022-12-05T00:41:44;53.53;;;48.83;;
48588;SDS011;34369;51.174;6.738;2022-12-05T00:44:17;54.50;;;49.67;;
48588;SDS011;34369;51.174;6.738;2022-12-05T00:46:49;54.27;;;49.57;;
48588;SDS011;34369;51.174;6.738;2022-12-05T00:49:23;53.27;;;48.60;;
48588;SDS011;34369;51.174;6.738;2022-12-05T00:51:56;56.00;;;50.93;;
48588;SDS011;34369;51.174;6.738;2022-12-05T00:54:29;55.57;;;50.47;;
48588;SDS011;34369;51.174;6.738;2022-12-05T00:57:03;54.70;;;49.70;;
48588;SDS011;34369;51.174;6.738;2022-12-05T00:59:35;54.33;;;49.53;;
48588;SDS011;34369;51.174;6.738;2022-12-05T01:02:07;56.87;;;52.03;;
48588;SDS011;34369;51.174;6.738;2022-12-05T01:04:40;57.10;;;52.20;;
48588;SDS011;34369;51.174;6.738;2022-12-05T01:07:12;55.73;;;50.77;;
48588;SDS011;34369;51.174;6.738;2022-12-05T01:09:45;54.63;;;49.83;;
48588;SDS011;34369;51.174;6.738;2022-12-05T01:12:20;53.83;;;48.90;;
48588;SDS011;34369;51.174;6.738;2022-12-05T01:14:53;54.37;;;49.47;;
48588;SDS011;34369;51.174;6.738;2022-12-05T01:17:25;56.33;;;51.20;;
48588;SDS011;34369;51.174;6.738;2022-12-05T01:19:58;55.27;;;50.57;;
48588;SDS011;34369;51.174;6.738;2022-12-05T01:22:30;55.93;;;50.93;;
48588;SDS011;34369;51.174;6.738;2022-12-05T01:25:04;55.03;;;50.00;;
48588;SDS011;34369;51.174;6.738;2022-12-05T01:27:40;56.77;;;51.67;;
48588;SDS011;34369;51.174;6.738;2022-12-05T01:30:12;53.87;;;48.93;;
48588;SDS011;34369;51.174;6.738;2022-12-05T01:32:45;55.73;;;50.67;;
48588;SDS011;34369;51.174;6.738;2022-12-05T01:35:17;54.17;;;49.27;;
48588;SDS011;34369;51.174;6.738;2022-12-05T01:37:50;56.17;;;51.17;;
48588;SDS011;34369;51.174;6.738;2022-12-05T01:40:22;55.20;;;50.00;;
48588;SDS011;34369;51.174;6.738;2022-12-05T01:42:57;55.43;;;50.53;;
48588;SDS011;34369;51.174;6.738;2022-12-05T01:45:31;55.10;;;50.07;;
48588;SDS011;34369;51.174;6.738;2022-12-05T01:48:08;56.17;;;51.28;;
48588;SDS011;34369;51.174;6.738;2022-12-05T01:50:45;51.80;;;47.20;;
48588;SDS011;34369;51.174;6.738;2022-12-05T01:53:20;53.80;;;48.90;;
48588;SDS011;34369;51.174;6.738;2022-12-05T01:55:53;55.77;;;50.97;;
48588;SDS011;34369;51.174;6.738;2022-12-05T01:58:30;53.10;;;48.60;;
48588;SDS011;34369;51.174;6.738;2022-12-05T02:01:06;53.30;;;48.67;;
48588;SDS011;34369;51.174;6.738;2022-12-05T02:03:38;55.30;;;50.30;;
48588;SDS011;34369;51.174;6.738;2022-12-05T02:06:11;54.53;;;49.53;;
48588;SDS011;34369;51.174;6.738;2022-12-05T02:08:45;56.07;;;51.20;;
48588;SDS011;34369;51.174;6.738;2022-12-05T02:11:19;54.80;;;49.90;;
48588;SDS011;34369;51.174;6.738;2022-12-05T02:14:04;55.28;;;50.53;;
48588;SDS011;34369;51.174;6.738;2022-12-05T02:16:51;54.00;;;48.93;;
48588;SDS011;34369;51.174;6.738;2022-12-05T02:22:50;55.25;;;50.28;;
48588;SDS011;34369;51.174;6.738;2022-12-05T02:26:06;52.90;;;48.07;;
48588;SDS011;34369;51.174;6.738;2022-12-05T02:29:28;58.13;;;52.93;;
48588;SDS011;34369;51.174;6.738;2022-12-05T02:32:30;55.03;;;50.00;;
48588;SDS011;34369;51.174;6.738;2022-12-05T02:35:13;53.87;;;48.87;;
48588;SDS011;34369;51.174;6.738;2022-12-05T02:37:59;56.33;;;51.20;;
48588;SDS011;34369;51.174;6.738;2022-12-05T02:40:54;54.73;;;49.83;;
48588;SDS011;34369;51.174;6.738;2022-12-05T02:43:36;55.13;;;50.43;;
48588;SDS011;34369;51.174;6.738;2022-12-05T02:46:15;56.67;;;51.37;;
48588;SDS011;34369;51.174;6.738;2022-12-05T02:48:53;58.80;;;53.17;;
48588;SDS011;34369;51.174;6.738;2022-12-05T02:51:30;55.43;;;50.47;;
48588;SDS011;34369;51.174;6.738;2022-12-05T02:54:07;57.05;;;52.08;;
48588;SDS011;34369;51.174;6.738;2022-12-05T02:56:44;56.77;;;51.67;;
48588;SDS011;34369;51.174;6.738;2022-12-05T02:59:17;59.90;;;54.63;;
48588;SDS011;34369;51.174;6.738;2022-12-05T03:01:51;57.37;;;52.57;;
48588;SDS011;34369;51.174;6.738;2022-12-05T03:04:24;55.10;;;50.50;;
48588;SDS011;34369;51.174;6.738;2022-12-05T03:06:58;56.23;;;51.40;;
48588;SDS011;34369;51.174;6.738;2022-12-05T03:09:35;53.13;;;48.33;;
48588;SDS011;34369;51.174;6.738;2022-12-05T03:12:10;53.43;;;48.63;;
48588;SDS011;34369;51.174;6.738;2022-12-05T03:14:47;54.53;;;49.80;;
48588;SDS011;34369;51.174;6.738;2022-12-05T03:17:27;51.80;;;47.27;;
48588;SDS011;34369;51.174;6.738;2022-12-05T03:20:04;55.33;;;50.47;;
48588;SDS011;34369;51.174;6.738;2022-12-05T03:22:44;55.27;;;50.27;;
48588;SDS011;34369;51.174;6.738;2022-12-05T03:25:22;55.30;;;49.90;;
48588;SDS011;34369;51.174;6.738;2022-12-05T03:28:01;58.07;;;52.87;;
48588;SDS011;34369;51.174;6.738;2022-12-05T03:30:39;57.40;;;52.30;;
48588;SDS011;34369;51.174;6.738;2022-12-05T03:33:16;56.23;;;51.23;;
48588;SDS011;34369;51.174;6.738;2022-12-05T03:35:55;56.27;;;51.23;;
48588;SDS011;34369;51.174;6.738;2022-12-05T03:38:34;57.47;;;52.27;;
48588;SDS011;34369;51.174;6.738;2022-12-05T03:41:13;59.27;;;54.17;;
48588;SDS011;34369;51.174;6.738;2022-12-05T03:43:53;57.77;;;52.63;;
48588;SDS011;34369;51.174;6.738;2022-12-05T03:46:32;56.63;;;51.63;;
48588;SDS011;34369;51.174;6.738;2022-12-05T03:49:13;56.20;;;51.00;;
48588;SDS011;34369;51.174;6.738;2022-12-05T03:51:51;55.23;;;50.27;;
48588;SDS011;34369;51.174;6.738;2022-12-05T03:54:37;58.13;;;53.13;;
48588;SDS011;34369;51.174;6.738;2022-12-05T03:57:14;57.27;;;52.37;;
48588;SDS011;34369;51.174;6.738;2022-12-05T04:02:27;55.27;;;50.57;;
48588;SDS011;34369;51.174;6.738;2022-12-05T04:05:15;55.90;;;50.90;;
48588;SDS011;34369;51.174;6.738;2022-12-05T04:07:54;56.70;;;51.67;;
48588;SDS011;34369;51.174;6.738;2022-12-05T04:10:32;56.97;;;52.37;;
48588;SDS011;34369;51.174;6.738;2022-12-05T04:13:19;52.93;;;48.40;;
48588;SDS011;34369;51.174;6.738;2022-12-05T04:15:56;55.43;;;50.33;;
48588;SDS011;34369;51.174;6.738;2022-12-05T04:18:52;55.07;;;50.17;;
48588;SDS011;34369;51.174;6.738;2022-12-05T04:21:32;54.03;;;49.37;;
48588;SDS011;34369;51.174;6.738;2022-12-05T04:24:12;56.57;;;51.87;;
48588;SDS011;34369;51.174;6.738;2022-12-05T04:27:09;53.77;;;48.73;;
48588;SDS011;34369;51.174;6.738;2022-12-05T04:32:29;54.87;;;50.37;;
48588;SDS011;34369;51.174;6.738;2022-12-05T04:35:10;54.57;;;49.77;;
48588;SDS011;34369;51.174;6.738;2022-12-05T04:37:51;56.27;;;51.57;;
48588;SDS011;34369;51.174;6.738;2022-12-05T04:40:32;55.17;;;50.37;;
48588;SDS011;34369;51.174;6.738;2022-12-05T04:43:07;56.80;;;52.00;;
48588;SDS011;34369;51.174;6.738;2022-12-05T04:45:43;54.90;;;50.10;;
48588;SDS011;34369;51.174;6.738;2022-12-05T04:48:16;52.33;;;48.03;;
48588;SDS011;34369;51.174;6.738;2022-12-05T04:50:49;54.23;;;49.63;;
48588;SDS011;34369;51.174;6.738;2022-12-05T04:53:26;54.07;;;49.37;;
48588;SDS011;34369;51.174;6.738;2022-12-05T04:56:01;53.93;;;49.43;;
48588;SDS011;34369;51.174;6.738;2022-12-05T04:58:36;52.90;;;48.53;;
48588;SDS011;34369;51.174;6.738;2022-12-05T05:01:11;52.70;;;48.17;;
48588;SDS011;34369;51.174;6.738;2022-12-05T05:03:51;53.67;;;49.27;;
48588;SDS011;34369;51.174;6.738;2022-12-05T05:06:29;56.43;;;51.77;;
48588;SDS011;34369;51.174;6.738;2022-12-05T05:09:03;55.63;;;50.53;;
48588;SDS011;34369;51.174;6.738;2022-12-05T05:11:37;54.00;;;49.50;;
48588;SDS011;34369;51.174;6.738;2022-12-05T05:14:09;53.33;;;48.73;;
48588;SDS011;34369;51.174;6.738;2022-12-05T05:16:41;51.47;;;47.10;;
48588;SDS011;34369;51.174;6.738;2022-12-05T05:19:14;53.97;;;49.37;;
48588;SDS011;34369;51.174;6.738;2022-12-05T05:21:49;50.87;;;46.57;;
48588;SDS011;34369;51.174;6.738;2022-12-05T05:24:26;52.10;;;47.90;;
48588;SDS011;34369;51.174;6.738;2022-12-05T05:27:00;53.70;;;48.93;;
48588;SDS011;34369;51.174;6.738;2022-12-05T05:29:32;53.03;;;48.77;;
48588;SDS011;34369;51.174;6.738;2022-12-05T05:32:04;53.47;;;48.93;;
48588;SDS011;34369;51.174;6.738;2022-12-05T05:34:36;49.37;;;45.37;;
48588;SDS011;34369;51.174;6.738;2022-12-05T05:37:08;50.90;;;46.80;;
48588;SDS011;34369;51.174;6.738;2022-12-05T05:39:46;53.03;;;48.60;;
48588;SDS011;34369;51.174;6.738;2022-12-05T05:42:19;52.57;;;48.13;;
48588;SDS011;34369;51.174;6.738;2022-12-05T05:44:51;52.93;;;48.67;;
48588;SDS011;34369;51.174;6.738;2022-12-05T05:47:23;52.27;;;48.03;;
48588;SDS011;34369;51.174;6.738;2022-12-05T05:49:57;52.30;;;47.60;;
48588;SDS011;34369;51.174;6.738;2022-12-05T05:52:31;52.40;;;47.93;;
48588;SDS011;34369;51.174;6.738;2022-12-05T05:55:06;53.33;;;49.07;;
48588;SDS011;34369;51.174;6.738;2022-12-05T05:57:40;53.13;;;48.78;;
48588;SDS011;34369;51.174;6.738;2022-12-05T06:00:14;47.53;;;43.73;;
48588;SDS011;34369;51.174;6.738;2022-12-05T06:02:47;50.27;;;46.30;;
48588;SDS011;34369;51.174;6.738;2022-12-05T06:05:20;52.53;;;48.13;;
48588;SDS011;34369;51.174;6.738;2022-12-05T06:07:52;52.30;;;47.80;;
48588;SDS011;34369;51.174;6.738;2022-12-05T06:10:26;51.77;;;47.77;;
48588;SDS011;34369;51.174;6.738;2022-12-05T06:12:59;52.40;;;48.10;;
48588;SDS011;34369;51.174;6.738;2022-12-05T06:15:32;51.80;;;47.50;;
48588;SDS011;34369;51.174;6.738;2022-12-05T06:18:05;50.37;;;46.43;;
48588;SDS011;34369;51.174;6.738;2022-12-05T06:20:37;48.73;;;44.83;;
48588;SDS011;34369;51.174;6.738;2022-12-05T06:23:09;52.30;;;48.00;;
48588;SDS011;34369;51.174;6.738;2022-12-05T06:25:47;52.33;;;48.23;;
48588;SDS011;34369;51.174;6.738;2022-12-05T06:28:22;52.10;;;47.87;;
48588;SDS011;34369;51.174;6.738;2022-12-05T06:30:57;53.53;;;49.07;;
48588;SDS011;34369;51.174;6.738;2022-12-05T06:33:29;50.97;;;46.90;;
48588;SDS011;34369;51.174;6.738;2022-12-05T06:36:03;49.33;;;45.40;;
48588;SDS011;34369;51.174;6.738;2022-12-05T06:38:38;49.20;;;44.92;;
48588;SDS011;34369;51.174;6.738;2022-12-05T06:41:16;49.67;;;45.73;;
48588;SDS011;34369;51.174;6.738;2022-12-05T06:43:51;50.80;;;46.90;;
48588;SDS011;34369;51.174;6.738;2022-12-05T06:46:24;52.17;;;48.17;;
48588;SDS011;34369;51.174;6.738;2022-12-05T06:48:57;49.87;;;45.90;;
48588;SDS011;34369;51.174;6.738;2022-12-05T06:51:30;51.87;;;47.60;;
48588;SDS011;34369;51.174;6.738;2022-12-05T06:54:02;53.67;;;49.37;;
48588;SDS011;34369;51.174;6.738;2022-12-05T06:56:36;53.80;;;49.43;;
48588;SDS011;34369;51.174;6.738;2022-12-05T06:59:09;52.03;;;47.90;;
48588;SDS011;34369;51.174;6.738;2022-12-05T07:04:20;51.00;;;47.00;;
48588;SDS011;34369;51.174;6.738;2022-12-05T07:06:57;50.47;;;46.40;;
48588;SDS011;34369;51.174;6.738;2022-12-05T07:09:38;50.60;;;46.77;;
48588;SDS011;34369;51.174;6.738;2022-12-05T07:12:19;53.00;;;48.73;;
48588;SDS011;34369;51.174;6.738;2022-12-05T07:14:52;51.00;;;46.97;;
48588;SDS011;34369;51.174;6.738;2022-12-05T07:17:37;50.30;;;46.27;;
48588;SDS011;34369;51.174;6.738;2022-12-05T07:20:16;53.73;;;49.43;;
48588;SDS011;34369;51.174;6.738;2022-12-05T07:23:16;48.63;;;44.40;;
48588;SDS011;34369;51.174;6.738;2022-12-05T07:26:41;47.23;;;43.63;;
48588;SDS011;34369;51.174;6.738;2022-12-05T07:29:23;51.80;;;47.80;;
48588;SDS011;34369;51.174;6.738;2022-12-05T07:32:01;53.67;;;49.37;;
48588;SDS011;34369;51.174;6.738;2022-12-05T07:34:39;51.67;;;47.47;;
48588;SDS011;34369;51.174;6.738;2022-12-05T07:37:22;52.70;;;48.43;;
48588;SDS011;34369;51.174;6.738;2022-12-05T07:39:59;55.20;;;50.63;;
48588;SDS011;34369;51.174;6.738;2022-12-05T07:42:35;53.13;;;48.67;;
48588;SDS011;34369;51.174;6.738;2022-12-05T07:45:25;51.20;;;47.03;;
48588;SDS011;34369;51.174;6.738;2022-12-05T07:48:07;54.10;;;49.63;;
48588;SDS011;34369;51.174;6.738;2022-12-05T07:50:51;52.07;;;47.77;;
48588;SDS011;34369;51.174;6.738;2022-12-05T07:53:36;53.03;;;48.60;;
48588;SDS011;34369;51.174;6.738;2022-12-05T07:56:15;54.73;;;50.30;;
48588;SDS011;34369;51.174;6.738;2022-12-05T07:58:55;53.50;;;49.27;;
48588;SDS011;34369;51.174;6.738;2022-12-05T08:01:35;53.50;;;49.20;;
48588;SDS011;34369;51.174;6.738;2022-12-05T08:04:12;55.73;;;51.37;;
48588;SDS011;34369;51.174;6.738;2022-12-05T08:06:54;53.40;;;49.27;;
48588;SDS011;34369;51.174;6.738;2022-12-05T08:09:32;51.03;;;46.03;;
48588;SDS011;34369;51.174;6.738;2022-12-05T08:12:08;51.07;;;46.97;;
48588;SDS011;34369;51.174;6.738;2022-12-05T08:14:43;52.30;;;48.20;;
48588;SDS011;34369;51.174;6.738;2022-12-05T08:17:20;52.37;;;48.07;;
48588;SDS011;34369;51.174;6.738;2022-12-05T08:19:54;52.57;;;48.57;;
48588;SDS011;34369;51.174;6.738;2022-12-05T08:22:27;52.17;;;47.97;;
48588;SDS011;34369;51.174;6.738;2022-12-05T08:25:03;51.53;;;47.43;;
48588;SDS011;34369;51.174;6.738;2022-12-05T08:27:52;50.67;;;46.57;;
48588;SDS011;34369;51.174;6.738;2022-12-05T08:37:49;49.47;;;45.63;;
48588;SDS011;34369;51.174;6.738;2022-12-05T08:40:22;50.73;;;46.77;;
48588;SDS011;34369;51.174;6.738;2022-12-05T08:42:56;51.07;;;47.03;;
48588;SDS011;34369;51.174;6.738;2022-12-05T08:45:29;52.73;;;48.60;;
48588;SDS011;34369;51.174;6.738;2022-12-05T08:48:03;51.90;;;47.87;;
48588;SDS011;34369;51.174;6.738;2022-12-05T08:50:39;52.77;;;48.50;;
48588;SDS011;34369;51.174;6.738;2022-12-05T08:53:11;49.67;;;45.37;;
48588;SDS011;34369;51.174;6.738;2022-12-05T08:55:47;52.08;;;48.25;;
48588;SDS011;34369;51.174;6.738;2022-12-05T08:58:20;52.30;;;48.20;;
48588;SDS011;34369;51.174;6.738;2022-12-05T09:00:53;50.73;;;46.83;;
48588;SDS011;34369;51.174;6.738;2022-12-05T09:03:33;52.77;;;48.80;;
48588;SDS011;34369;51.174;6.738;2022-12-05T09:06:09;49.47;;;45.67;;
48588;SDS011;34369;51.174;6.738;2022-12-05T09:08:44;50.60;;;46.70;;
48588;SDS011;34369;51.174;6.738;2022-12-05T09:11:19;49.23;;;45.30;;
48588;SDS011;34369;51.174;6.738;2022-12-05T09:19:36;50.40;;;46.50;;
48588;SDS011;34369;51.174;6.738;2022-12-05T09:22:14;51.00;;;46.77;;
48588;SDS011;34369;51.174;6.738;2022-12-05T09:24:53;48.07;;;44.27;;
48588;SDS011;34369;51.174;6.738;2022-12-05T09:27:27;49.67;;;45.80;;
48588;SDS011;34369;51.174;6.738;2022-12-05T09:30:01;49.17;;;45.37;;
48588;SDS011;34369;51.174;6.738;2022-12-05T09:32:44;49.30;;;45.70;;
48588;SDS011;34369;51.174;6.738;2022-12-05T09:35:32;50.50;;;46.73;;
48588;SDS011;34369;51.174;6.738;2022-12-05T09:38:43;51.43;;;47.40;;
48588;SDS011;34369;51.174;6.738;2022-12-05T09:45:22;48.47;;;44.60;;
48588;SDS011;34369;51.174;6.738;2022-12-05T09:48:51;48.33;;;44.43;;
48588;SDS011;34369;51.174;6.738;2022-12-05T09:52:11;50.70;;;46.83;;
48588;SDS011;34369;51.174;6.738;2022-12-05T09:55:17;51.07;;;47.40;;
48588;SDS011;34369;51.174;6.738;2022-12-05T09:58:24;48.30;;;44.60;;
48588;SDS011;34369;51.174;6.738;2022-12-05T10:01:24;51.60;;;47.60;;
48588;SDS011;34369;51.174;6.738;2022-12-05T10:04:42;49.80;;;46.00;;
48588;SDS011;34369;51.174;6.738;2022-12-05T10:08:16;49.63;;;45.93;;
48588;SDS011;34369;51.174;6.738;2022-12-05T10:11:00;51.80;;;47.60;;
48588;SDS011;34369;51.174;6.738;2022-12-05T10:14:01;50.50;;;46.50;;
48588;SDS011;34369;51.174;6.738;2022-12-05T10:17:14;51.47;;;47.70;;
48588;SDS011;34369;51.174;6.738;2022-12-05T10:23:52;51.70;;;47.80;;
48588;SDS011;34369;51.174;6.738;2022-12-05T10:26:42;48.93;;;45.23;;
48588;SDS011;34369;51.174;6.738;2022-12-05T10:29:28;49.70;;;45.90;;
48588;SDS011;34369;51.174;6.738;2022-12-05T10:32:21;49.73;;;45.90;;
48588;SDS011;34369;51.174;6.738;2022-12-05T10:35:13;53.50;;;49.47;;
48588;SDS011;34369;51.174;6.738;2022-12-05T10:37:54;50.23;;;46.43;;
48588;SDS011;34369;51.174;6.738;2022-12-05T10:40:32;49.43;;;45.67;;
48588;SDS011;34369;51.174;6.738;2022-12-05T10:43:12;48.63;;;44.93;;
48588;SDS011;34369;51.174;6.738;2022-12-05T10:45:51;52.43;;;48.33;;
48588;SDS011;34369;51.174;6.738;2022-12-05T10:48:26;50.17;;;46.47;;
48588;SDS011;34369;51.174;6.738;2022-12-05T10:51:01;49.63;;;45.87;;
48588;SDS011;34369;51.174;6.738;2022-12-05T10:53:40;50.90;;;47.10;;
48588;SDS011;34369;51.174;6.738;2022-12-05T10:56:38;54.73;;;50.53;;
48588;SDS011;34369;51.174;6.738;2022-12-05T10:59:16;53.37;;;49.23;;
48588;SDS011;34369;51.174;6.738;2022-12-05T11:01:52;51.30;;;47.47;;
48588;SDS011;34369;51.174;6.738;2022-12-05T11:07:20;49.63;;;45.90;;
48588;SDS011;34369;51.174;6.738;2022-12-05T11:10:21;49.70;;;45.93;;
48588;SDS011;34369;51.174;6.738;2022-12-05T11:13:21;50.20;;;46.43;;
48588;SDS011;34369;51.174;6.738;2022-12-05T11:23:48;46.50;;;43.00;;
48588;SDS011;34369;51.174;6.738;2022-12-05T11:30:38;43.70;;;40.60;;
48588;SDS011;34369;51.174;6.738;2022-12-05T11:33:32;44.37;;;41.30;;
48588;SDS011;34369;51.174;6.738;2022-12-05T11:36:17;45.83;;;42.80;;
48588;SDS011;34369;51.174;6.738;2022-12-05T11:38:57;47.60;;;44.30;;
48588;SDS011;34369;51.174;6.738;2022-12-05T11:42:04;48.57;;;45.17;;
48588;SDS011;34369;51.174;6.738;2022-12-05T11:48:14;46.23;;;43.00;;
48588;SDS011;34369;51.174;6.738;2022-12-05T11:51:19;46.73;;;43.57;;
48588;SDS011;34369;51.174;6.738;2022-12-05T11:57:39;46.90;;;43.80;;
48588;SDS011;34369;51.174;6.738;2022-12-05T12:00:50;45.43;;;42.27;;
48588;SDS011;34369;51.174;6.738;2022-12-05T12:03:53;46.20;;;43.10;;
48588;SDS011;34369;51.174;6.738;2022-12-05T12:07:45;45.17;;;42.13;;
48588;SDS011;34369;51.174;6.738;2022-12-05T12:10:36;47.03;;;43.93;;
48588;SDS011;34369;51.174;6.738;2022-12-05T12:13:23;46.73;;;43.57;;
48588;SDS011;34369;51.174;6.738;2022-12-05T12:16:16;45.77;;;42.63;;
48588;SDS011;34369;51.174;6.738;2022-12-05T12:19:05;44.83;;;41.77;;
48588;SDS011;34369;51.174;6.738;2022-12-05T12:25:23;44.77;;;41.43;;
48588;SDS011;34369;51.174;6.738;2022-12-05T12:28:17;47.20;;;43.77;;
48588;SDS011;34369;51.174;6.738;2022-12-05T12:31:22;45.67;;;42.53;;
48588;SDS011;34369;51.174;6.738;2022-12-05T12:34:18;49.17;;;45.63;;
48588;SDS011;34369;51.174;6.738;2022-12-05T12:37:56;48.10;;;44.73;;
48588;SDS011;34369;51.174;6.738;2022-12-05T12:41:04;46.77;;;43.57;;
48588;SDS011;34369;51.174;6.738;2022-12-05T12:43:56;47.87;;;44.47;;
48588;SDS011;34369;51.174;6.738;2022-12-05T12:46:56;50.33;;;46.83;;
48588;SDS011;34369;51.174;6.738;2022-12-05T12:49:40;47.13;;;43.83;;
48588;SDS011;34369;51.174;6.738;2022-12-05T12:52:42;48.07;;;44.67;;
48588;SDS011;34369;51.174;6.738;2022-12-05T12:56:10;45.43;;;42.17;;
48588;SDS011;34369;51.174;6.738;2022-12-05T12:59:22;44.33;;;41.30;;
48588;SDS011;34369;51.174;6.738;2022-12-05T13:02:57;44.83;;;41.73;;
48588;SDS011;34369;51.174;6.738;2022-12-05T13:05:52;44.97;;;41.93;;
48588;SDS011;34369;51.174;6.738;2022-12-05T13:08:51;47.07;;;43.90;;
48588;SDS011;34369;51.174;6.738;2022-12-05T13:12:33;42.73;;;39.77;;
48588;SDS011;34369;51.174;6.738;2022-12-05T13:16:24;44.73;;;41.83;;
48588;SDS011;34369;51.174;6.738;2022-12-05T13:19:27;45.50;;;42.50;;
48588;SDS011;34369;51.174;6.738;2022-12-05T13:22:09;43.73;;;40.83;;
48588;SDS011;34369;51.174;6.738;2022-12-05T13:25:12;44.00;;;41.00;;
48588;SDS011;34369;51.174;6.738;2022-12-05T13:28:19;44.25;;;41.35;;
48588;SDS011;34369;51.174;6.738;2022-12-05T13:31:17;45.07;;;41.97;;
48588;SDS011;34369;51.174;6.738;2022-12-05T14:09:11;46.77;;;43.70;;
48588;SDS011;34369;51.174;6.738;2022-12-05T14:15:28;47.87;;;44.73;;
48588;SDS011;34369;51.174;6.738;2022-12-05T14:18:09;46.17;;;43.00;;
48588;SDS011;34369;51.174;6.738;2022-12-05T14:20:50;47.60;;;44.40;;
48588;SDS011;34369;51.174;6.738;2022-12-05T14:23:38;50.17;;;46.87;;
48588;SDS011;34369;51.174;6.738;2022-12-05T14:26:29;47.50;;;44.30;;
48588;SDS011;34369;51.174;6.738;2022-12-05T14:32:20;47.07;;;43.87;;
48588;SDS011;34369;51.174;6.738;2022-12-05T14:34:56;48.00;;;44.67;;
48588;SDS011;34369;51.174;6.738;2022-12-05T14:37:34;48.63;;;45.43;;
48588;SDS011;34369;51.174;6.738;2022-12-05T14:40:19;48.27;;;44.97;;
48588;SDS011;34369;51.174;6.738;2022-12-05T14:43:02;46.47;;;43.17;;
48588;SDS011;34369;51.174;6.738;2022-12-05T14:45:54;47.40;;;43.93;;
48588;SDS011;34369;51.174;6.738;2022-12-05T14:48:31;47.53;;;44.37;;
48588;SDS011;34369;51.174;6.738;2022-12-05T14:54:18;47.53;;;44.40;;
48588;SDS011;34369;51.174;6.738;2022-12-05T14:56:53;46.23;;;43.10;;
48588;SDS011;34369;51.174;6.738;2022-12-05T14:59:41;48.70;;;45.40;;
48588;SDS011;34369;51.174;6.738;2022-12-05T15:02:21;47.60;;;44.37;;
48588;SDS011;34369;51.174;6.738;2022-12-05T15:04:59;45.50;;;42.40;;
48588;SDS011;34369;51.174;6.738;2022-12-05T15:07:44;48.97;;;45.57;;
48588;SDS011;34369;51.174;6.738;2022-12-05T15:10:20;50.47;;;47.07;;
48588;SDS011;34369;51.174;6.738;2022-12-05T15:12:56;49.55;;;46.13;;
48588;SDS011;34369;51.174;6.738;2022-12-05T15:15:36;47.17;;;43.77;;
48588;SDS011;34369;51.174;6.738;2022-12-05T15:18:17;48.03;;;44.83;;
48588;SDS011;34369;51.174;6.738;2022-12-05T15:20:58;48.93;;;45.67;;
48588;SDS011;34369;51.174;6.738;2022-12-05T15:23:41;47.57;;;44.27;;
48588;SDS011;34369;51.174;6.738;2022-12-05T15:26:16;47.40;;;44.13;;
48588;SDS011;34369;51.174;6.738;2022-12-05T15:28:57;46.93;;;43.77;;
48588;SDS011;34369;51.174;6.738;2022-12-05T15:31:39;48.20;;;44.90;;
48588;SDS011;34369;51.174;6.738;2022-12-05T15:36:49;45.90;;;42.80;;
48588;SDS011;34369;51.174;6.738;2022-12-05T15:39:27;48.53;;;45.33;;
48588;SDS011;34369;51.174;6.738;2022-12-05T15:41:59;48.37;;;44.63;;
48588;SDS011;34369;51.174;6.738;2022-12-05T15:44:31;55.03;;;49.87;;
48588;SDS011;34369;51.174;6.738;2022-12-05T15:47:04;54.57;;;49.50;;
48588;SDS011;34369;51.174;6.738;2022-12-05T15:49:48;57.07;;;52.30;;
48588;SDS011;34369;51.174;6.738;2022-12-05T15:52:24;55.77;;;51.67;;
48588;SDS011;34369;51.174;6.738;2022-12-05T15:55:03;54.87;;;50.83;;
48588;SDS011;34369;51.174;6.738;2022-12-05T15:57:43;52.80;;;49.03;;
48588;SDS011;34369;51.174;6.738;2022-12-05T16:00:25;53.63;;;49.53;;
48588;SDS011;34369;51.174;6.738;2022-12-05T16:03:00;53.50;;;49.43;;
48588;SDS011;34369;51.174;6.738;2022-12-05T16:05:38;51.67;;;48.07;;
48588;SDS011;34369;51.174;6.738;2022-12-05T16:08:19;51.87;;;48.00;;
48588;SDS011;34369;51.174;6.738;2022-12-05T16:10:53;49.77;;;46.27;;
48588;SDS011;34369;51.174;6.738;2022-12-05T16:13:25;49.93;;;46.43;;
48588;SDS011;34369;51.174;6.738;2022-12-05T16:15:58;48.90;;;45.50;;
48588;SDS011;34369;51.174;6.738;2022-12-05T16:18:31;50.50;;;47.00;;
48588;SDS011;34369;51.174;6.738;2022-12-05T16:24:05;51.63;;;48.07;;
48588;SDS011;34369;51.174;6.738;2022-12-05T16:26:42;48.50;;;44.93;;
48588;SDS011;34369;51.174;6.738;2022-12-05T16:29:24;48.57;;;45.17;;
48588;SDS011;34369;51.174;6.738;2022-12-05T16:31:59;49.63;;;46.10;;
48588;SDS011;34369;51.174;6.738;2022-12-05T16:34:33;52.43;;;48.93;;
48588;SDS011;34369;51.174;6.738;2022-12-05T16:37:13;50.27;;;46.73;;
48588;SDS011;34369;51.174;6.738;2022-12-05T16:39:51;50.70;;;47.20;;
48588;SDS011;34369;51.174;6.738;2022-12-05T16:42:24;51.23;;;47.63;;
48588;SDS011;34369;51.174;6.738;2022-12-05T16:44:58;50.20;;;46.53;;
48588;SDS011;34369;51.174;6.738;2022-12-05T16:50:30;50.80;;;47.42;;
48588;SDS011;34369;51.174;6.738;2022-12-05T17:05:58;47.07;;;43.77;;
48588;SDS011;34369;51.174;6.738;2022-12-05T17:08:34;50.10;;;46.60;;
48588;SDS011;34369;51.174;6.738;2022-12-05T17:11:06;50.63;;;47.07;;
48588;SDS011;34369;51.174;6.738;2022-12-05T17:13:46;48.47;;;45.13;;
48588;SDS011;34369;51.174;6.738;2022-12-05T17:16:19;48.10;;;44.80;;
48588;SDS011;34369;51.174;6.738;2022-12-05T17:18:52;47.67;;;44.23;;
48588;SDS011;34369;51.174;6.738;2022-12-05T17:21:28;48.60;;;45.20;;
48588;SDS011;34369;51.174;6.738;2022-12-05T17:24:03;49.60;;;46.17;;
48588;SDS011;34369;51.174;6.738;2022-12-05T17:26:37;48.93;;;45.30;;
48588;SDS011;34369;51.174;6.738;2022-12-05T17:29:10;45.57;;;42.17;;
48588;SDS011;34369;51.174;6.738;2022-12-05T17:31:42;50.53;;;46.93;;
48588;SDS011;34369;51.174;6.738;2022-12-05T17:34:15;49.63;;;46.13;;
48588;SDS011;34369;51.174;6.738;2022-12-05T17:36:50;50.37;;;46.77;;
48588;SDS011;34369;51.174;6.738;2022-12-05T17:39:23;49.90;;;46.47;;
48588;SDS011;34369;51.174;6.738;2022-12-05T17:41:56;50.07;;;46.40;;
48588;SDS011;34369;51.174;6.738;2022-12-05T17:44:29;49.07;;;45.57;;
48588;SDS011;34369;51.174;6.738;2022-12-05T17:47:01;48.10;;;44.70;;